Time;durP1;ratioP1;P1;durP2;ratioP2;P2;SDS_P1;SDS_P2;PMS_P1;PMS_P2;Temp;Humidity;BMP_temperature;BMP_pressure;BME280_temperature;BME280_humidity;BME280_pressure;Samples;Min_cycle;Max_cycle;Signal;HPM_P1;HPM_P2
2024/04/05 00:00:13;;;;;;;;;6.50;4.50;;;;;;;;5051689;28;8855;-81
2024/04/05 00:02:41;;;;;;;;;3.00;3.00;;;;;;;;5052709;28;9636;-80
2024/04/05 00:05:12;;;;;;;;;3.50;3.00;;;;;;;;5057876;28;8837;-81
2024/04/05 00:07:41;;;;;;;;;6.00;4.25;;;;;;;;5052157;28;8873;-81
2024/04/05 00:10:09;;;;;;;;;2.75;2.00;;;;;;;;5051139;28;8863;-80
2024/04/05 00:12:37;;;;;;;;;6.25;4.25;;;;;;;;5051752;28;8851;-81
2024/04/05 00:15:03;;;;;;;;;3.00;3.00;;;;;;;;5043139;28;8980;-81
2024/04/05 00:17:30;;;;;;;;;4.25;4.00;;;;;;;;5051293;28;8920;-81
2024/04/05 00:19:57;;;;;;;;;3.25;3.25;;;;;;;;5051314;28;8985;-80
2024/04/05 00:22:26;;;;;;;;;4.50;4.00;;;;;;;;5050355;28;8857;-80
2024/04/05 00:24:55;;;;;;;;;0.50;0.50;;;;;;;;5050163;28;8843;-79
2024/04/05 00:27:26;;;;;;;;;2.75;2.75;;;;;;;;5050508;28;8870;-80
2024/04/05 00:29:54;;;;;;;;;5.00;5.00;;;;;;;;5051003;28;8839;-80
2024/04/05 00:32:22;;;;;;;;;6.50;5.00;;;;;;;;5050068;28;9680;-79
2024/04/05 00:34:48;;;;;;;;;5.75;5.00;;;;;;;;5051274;28;8861;-80
2024/04/05 00:37:15;;;;;;;;;4.25;3.50;;;;;;;;5051411;28;9609;-80
2024/04/05 00:39:42;;;;;;;;;5.50;4.00;;;;;;;;5052435;28;8867;-79
2024/04/05 00:42:09;;;;;;;;;5.00;4.75;;;;;;;;5051929;28;8859;-80
2024/04/05 00:44:36;;;;;;;;;5.25;4.75;;;;;;;;5053948;28;8851;-80
2024/04/05 00:47:04;;;;;;;;;4.25;4.00;;;;;;;;5047146;28;8971;-80
2024/04/05 00:49:30;;;;;;;;;3.75;3.75;;;;;;;;5052838;28;8864;-80
2024/04/05 00:51:58;;;;;;;;;3.00;3.00;;;;;;;;5053524;28;8848;-80
2024/04/05 00:54:24;;;;;;;;;7.50;4.75;;;;;;;;5054259;28;8875;-79
2024/04/05 00:56:54;;;;;;;;;5.00;3.00;;;;;;;;5050753;28;8848;-79
2024/04/05 00:59:20;;;;;;;;;3.00;3.00;;;;;;;;5050346;28;8851;-80
2024/04/05 01:01:49;;;;;;;;;5.00;5.00;;;;;;;;5049246;28;8807;-80
2024/04/05 01:04:15;;;;;;;;;3.50;3.00;;;;;;;;5049562;28;8839;-81
2024/04/05 01:06:44;;;;;;;;;4.00;4.00;;;;;;;;5060980;28;8985;-80
2024/04/05 01:09:11;;;;;;;;;4.25;3.00;;;;;;;;5050015;28;8906;-79
2024/04/05 01:11:43;;;;;;;;;3.50;3.50;;;;;;;;5050584;28;9756;-81
2024/04/05 01:14:10;;;;;;;;;4.00;4.00;;;;;;;;5049843;28;8863;-80
2024/04/05 01:16:37;;;;;;;;;3.25;3.25;;;;;;;;5050339;28;8851;-79
2024/04/05 01:19:05;;;;;;;;;3.50;2.50;;;;;;;;5050399;28;8960;-81
2024/04/05 01:21:33;;;;;;;;;4.50;3.50;;;;;;;;5050601;28;8970;-81
2024/04/05 01:24:00;;;;;;;;;3.00;3.00;;;;;;;;5050231;28;8858;-81
2024/04/05 01:26:29;;;;;;;;;3.25;3.00;;;;;;;;5051615;28;8863;-80
2024/04/05 01:28:55;;;;;;;;;4.00;2.00;;;;;;;;5051224;28;8851;-80
2024/04/05 01:31:25;;;;;;;;;3.00;3.00;;;;;;;;5050672;28;8792;-80
2024/04/05 01:33:51;;;;;;;;;5.50;4.00;;;;;;;;5049923;28;8855;-81
2024/04/05 01:36:18;;;;;;;;;3.75;2.50;;;;;;;;5049428;28;8854;-79
2024/04/05 01:38:45;;;;;;;;;2.25;1.00;;;;;;;;5049731;28;8883;-80
2024/04/05 01:41:13;;;;;;;;;6.00;3.00;;;;;;;;5049324;28;8835;-79
2024/04/05 01:43:40;;;;;;;;;4.25;3.25;;;;;;;;5049035;28;8906;-79
2024/04/05 01:46:07;;;;;;;;;6.00;3.00;;;;;;;;5048980;28;8887;-80
2024/04/05 01:48:33;;;;;;;;;3.25;3.25;;;;;;;;5049134;28;8882;-79
2024/04/05 01:51:00;;;;;;;;;1.00;1.00;;;;;;;;5049037;28;8885;-77
2024/04/05 01:53:26;;;;;;;;;2.75;2.75;;;;;;;;5048168;28;8871;-80
2024/04/05 01:55:54;;;;;;;;;4.00;2.50;;;;;;;;5043739;28;8924;-80
2024/04/05 01:58:21;;;;;;;;;3.25;3.25;;;;;;;;5049385;28;8897;-81
2024/04/05 02:00:49;;;;;;;;;2.50;2.00;;;;;;;;5048555;28;8897;-79
2024/04/05 02:03:15;;;;;;;;;3.25;2.75;;;;;;;;5049069;28;8873;-80
2024/04/05 02:05:42;;;;;;;;;1.75;1.75;;;;;;;;5059267;28;8860;-80
2024/04/05 02:08:11;;;;;;;;;3.50;3.50;;;;;;;;5049498;28;8851;-79
2024/04/05 02:10:38;;;;;;;;;2.00;2.00;;;;;;;;5049415;28;8863;-80
2024/04/05 02:13:05;;;;;;;;;2.25;2.25;;;;;;;;5049473;28;8859;-80
2024/04/05 02:15:34;;;;;;;;;2.50;2.00;;;;;;;;5049095;28;8835;-80
2024/04/05 02:18:00;;;;;;;;;1.00;1.00;;;;;;;;5049025;28;8867;-80
2024/04/05 02:20:28;;;;;;;;;2.50;2.50;;;;;;;;5042849;28;8872;-80
2024/04/05 02:22:54;;;;;;;;;2.25;1.75;;;;;;;;5047545;28;8867;-80
2024/04/05 02:25:22;;;;;;;;;2.75;2.75;;;;;;;;5049918;28;8835;-80
2024/04/05 02:27:48;;;;;;;;;3.50;2.00;;;;;;;;5051563;28;8863;-79
2024/04/05 02:30:15;;;;;;;;;4.00;3.00;;;;;;;;5050656;28;8831;-79
2024/04/05 02:32:43;;;;;;;;;2.00;2.00;;;;;;;;5051996;28;8863;-79
2024/04/05 02:35:10;;;;;;;;;3.25;2.00;;;;;;;;5053306;28;8855;-79
2024/04/05 02:37:36;;;;;;;;;3.00;2.25;;;;;;;;5052851;28;8985;-79
2024/04/05 02:40:04;;;;;;;;;4.00;2.00;;;;;;;;5042541;28;8874;-79
2024/04/05 02:42:30;;;;;;;;;2.25;2.25;;;;;;;;5053372;28;8859;-79
2024/04/05 02:44:58;;;;;;;;;1.50;1.50;;;;;;;;5051308;28;8859;-80
2024/04/05 02:47:24;;;;;;;;;3.25;3.00;;;;;;;;5048611;28;8875;-80
2024/04/05 02:49:55;;;;;;;;;2.00;2.00;;;;;;;;5048395;28;8891;-80
2024/04/05 02:52:22;;;;;;;;;0.00;0.00;;;;;;;;5048040;28;8851;-80
2024/04/05 02:54:49;;;;;;;;;2.00;2.00;;;;;;;;5047790;28;8974;-80
2024/04/05 02:57:15;;;;;;;;;2.00;2.00;;;;;;;;5048468;28;8851;-81
2024/04/05 02:59:42;;;;;;;;;2.00;2.00;;;;;;;;5048241;28;8847;-80
2024/04/05 03:02:09;;;;;;;;;4.00;2.00;;;;;;;;5048388;28;8788;-81
2024/04/05 03:04:36;;;;;;;;;2.00;2.00;;;;;;;;5048268;28;8839;-80
2024/04/05 03:07:04;;;;;;;;;3.00;1.75;;;;;;;;5048079;28;8863;-80
2024/04/05 03:09:32;;;;;;;;;2.75;2.75;;;;;;;;5048365;28;8893;-80
2024/04/05 03:11:58;;;;;;;;;2.00;1.00;;;;;;;;5048690;28;8882;-80
2024/04/05 03:14:26;;;;;;;;;3.00;1.67;;;;;;;;5049751;28;8890;-80
2024/04/05 03:16:55;;;;;;;;;1.00;1.00;;;;;;;;5050136;28;8881;-80
2024/04/05 03:19:24;;;;;;;;;3.25;2.00;;;;;;;;5048904;28;8901;-80
2024/04/05 03:21:50;;;;;;;;;2.00;2.00;;;;;;;;5048024;28;8875;-80
2024/04/05 03:24:20;;;;;;;;;2.50;2.00;;;;;;;;5048089;28;8831;-81
2024/04/05 03:26:47;;;;;;;;;3.50;2.00;;;;;;;;5048820;28;8940;-80
2024/04/05 03:29:16;;;;;;;;;3.00;2.00;;;;;;;;5048115;28;8962;-81
2024/04/05 03:31:43;;;;;;;;;1.50;1.50;;;;;;;;5047835;28;8814;-80
2024/04/05 03:34:10;;;;;;;;;4.50;2.00;;;;;;;;5047842;28;8839;-79
2024/04/05 03:36:36;;;;;;;;;2.00;2.00;;;;;;;;5048482;28;9651;-80
2024/04/05 03:39:05;;;;;;;;;2.00;2.00;;;;;;;;5046370;28;8843;-80
2024/04/05 03:41:33;;;;;;;;;1.00;1.00;;;;;;;;5048313;28;8844;-81
2024/04/05 03:44:00;;;;;;;;;1.00;1.00;;;;;;;;5047477;28;8957;-81
2024/04/05 03:46:28;;;;;;;;;1.50;1.50;;;;;;;;5049062;28;8867;-80
2024/04/05 03:48:54;;;;;;;;;1.75;1.75;;;;;;;;5052998;28;8851;-80
2024/04/05 03:51:21;;;;;;;;;1.50;1.50;;;;;;;;5047284;28;8855;-80
2024/04/05 03:53:47;;;;;;;;;2.25;1.75;;;;;;;;5047093;28;8847;-80
2024/04/05 03:56:14;;;;;;;;;2.00;1.00;;;;;;;;5047441;28;8867;-80
2024/04/05 03:58:42;;;;;;;;;1.00;1.00;;;;;;;;5046883;28;8879;-79
2024/04/05 04:01:10;;;;;;;;;2.25;2.25;;;;;;;;5047038;28;8800;-81
2024/04/05 04:03:36;;;;;;;;;1.75;1.00;;;;;;;;5047384;28;8847;-81
2024/04/05 04:06:04;;;;;;;;;2.75;1.50;;;;;;;;5046996;28;8874;-80
2024/04/05 04:08:31;;;;;;;;;2.25;2.00;;;;;;;;5052592;28;8874;-80
2024/04/05 04:10:58;;;;;;;;;3.00;1.00;;;;;;;;5050824;28;9590;-82
2024/04/05 04:13:24;;;;;;;;;1.00;1.00;;;;;;;;5048337;28;9001;-83
2024/04/05 04:15:53;;;;;;;;;2.00;0.00;;;;;;;;5049272;28;9595;-81
2024/04/05 04:18:19;;;;;;;;;1.00;1.00;;;;;;;;5052629;28;8877;-82
2024/04/05 04:20:46;;;;;;;;;0.50;0.50;;;;;;;;5052304;28;8866;-83
2024/04/05 04:23:13;;;;;;;;;2.00;2.00;;;;;;;;5054033;28;8997;-81
2024/04/05 04:25:40;;;;;;;;;2.00;2.00;;;;;;;;5052704;28;8847;-80
2024/04/05 04:28:07;;;;;;;;;2.50;1.00;;;;;;;;5053737;28;8974;-81
2024/04/05 04:30:36;;;;;;;;;2.25;1.00;;;;;;;;5052342;28;8767;-80
2024/04/05 04:33:05;;;;;;;;;1.00;1.00;;;;;;;;5054112;28;8882;-80
2024/04/05 04:35:32;;;;;;;;;1.00;1.00;;;;;;;;5051321;28;8859;-82
2024/04/05 04:37:58;;;;;;;;;1.00;1.00;;;;;;;;5051165;28;8881;-81
2024/04/05 04:40:26;;;;;;;;;1.00;0.25;;;;;;;;5050518;28;8881;-81
2024/04/05 04:42:54;;;;;;;;;2.00;2.00;;;;;;;;5050963;28;8986;-83
2024/04/05 04:45:22;;;;;;;;;3.00;1.00;;;;;;;;5050318;28;8840;-83
2024/04/05 04:47:48;;;;;;;;;1.00;1.00;;;;;;;;5050843;28;8852;-83
2024/04/05 04:50:17;;;;;;;;;1.00;1.00;;;;;;;;5052274;28;8870;-81
2024/04/05 04:52:43;;;;;;;;;0.00;0.00;;;;;;;;5055060;28;8989;-81
2024/04/05 04:55:14;;;;;;;;;0.50;0.50;;;;;;;;5050653;28;8974;-81
2024/04/05 04:57:40;;;;;;;;;2.75;1.00;;;;;;;;5051240;28;8870;-81
2024/04/05 05:00:09;;;;;;;;;1.00;1.00;;;;;;;;5049913;28;8847;-81
2024/04/05 05:02:36;;;;;;;;;1.50;0.75;;;;;;;;5050710;28;8847;-81
2024/04/05 05:05:04;;;;;;;;;1.00;1.00;;;;;;;;5052579;28;8925;-81
2024/04/05 05:07:31;;;;;;;;;1.50;1.00;;;;;;;;5052425;28;9665;-81
2024/04/05 05:09:58;;;;;;;;;0.00;0.00;;;;;;;;5051241;28;8890;-82
2024/04/05 05:12:25;;;;;;;;;0.50;0.50;;;;;;;;5049995;28;8879;-81
2024/04/05 05:14:54;;;;;;;;;0.75;0.75;;;;;;;;5049505;28;8924;-81
2024/04/05 05:17:20;;;;;;;;;0.00;0.00;;;;;;;;5050119;28;8851;-81
2024/04/05 05:19:47;;;;;;;;;1.00;1.00;;;;;;;;5049018;28;8969;-74
2024/04/05 05:22:13;;;;;;;;;0.50;0.50;;;;;;;;5049033;28;9720;-73
2024/04/05 05:24:42;;;;;;;;;1.00;1.00;;;;;;;;5048884;28;8997;-73
2024/04/05 05:27:08;;;;;;;;;2.00;1.00;;;;;;;;5049172;28;8861;-74
2024/04/05 05:29:35;;;;;;;;;1.00;1.00;;;;;;;;5049614;28;8889;-74
2024/04/05 05:32:02;;;;;;;;;1.00;1.00;;;;;;;;5049670;28;8853;-73
2024/04/05 05:34:29;;;;;;;;;1.25;1.25;;;;;;;;5050215;28;8855;-74
2024/04/05 05:36:55;;;;;;;;;1.25;1.25;;;;;;;;5048411;28;8855;-74
2024/04/05 05:39:25;;;;;;;;;0.00;0.00;;;;;;;;5036487;28;8847;-74
2024/04/05 05:41:53;;;;;;;;;1.00;1.00;;;;;;;;5047851;28;8897;-73
2024/04/05 05:44:24;;;;;;;;;1.00;1.00;;;;;;;;5048564;28;8859;-74
2024/04/05 05:46:50;;;;;;;;;1.00;1.00;;;;;;;;5047800;28;8878;-74
2024/04/05 05:49:17;;;;;;;;;1.00;1.00;;;;;;;;5048518;28;8894;-74
2024/04/05 05:51:44;;;;;;;;;0.50;0.50;;;;;;;;5047733;28;9005;-74
2024/04/05 05:54:12;;;;;;;;;1.25;0.25;;;;;;;;5048946;28;8979;-74
2024/04/05 05:56:38;;;;;;;;;0.00;0.00;;;;;;;;5048253;28;8886;-73
2024/04/05 05:59:06;;;;;;;;;0.00;0.00;;;;;;;;5047894;28;8952;-73
2024/04/05 06:01:33;;;;;;;;;0.75;0.75;;;;;;;;5047069;28;8796;-74
2024/04/05 06:04:01;;;;;;;;;1.00;1.00;;;;;;;;5048027;28;8862;-74
2024/04/05 06:06:27;;;;;;;;;1.75;1.00;;;;;;;;5047589;28;8847;-74
2024/04/05 06:08:54;;;;;;;;;2.00;2.00;;;;;;;;5048604;28;8851;-73
2024/04/05 06:11:22;;;;;;;;;3.00;1.75;;;;;;;;5048976;28;8839;-73
2024/04/05 06:13:51;;;;;;;;;3.00;1.25;;;;;;;;5049363;28;8877;-73
2024/04/05 06:16:22;;;;;;;;;1.75;1.00;;;;;;;;5049313;28;8969;-74
2024/04/05 06:18:51;;;;;;;;;2.25;1.00;;;;;;;;5049579;28;8863;-74
2024/04/05 06:21:18;;;;;;;;;2.00;1.25;;;;;;;;5049403;28;8928;-75
2024/04/05 06:23:45;;;;;;;;;1.50;1.50;;;;;;;;5047991;28;8885;-74
2024/04/05 06:26:11;;;;;;;;;1.00;1.00;;;;;;;;5048050;28;8949;-77
2024/04/05 06:28:39;;;;;;;;;1.25;1.25;;;;;;;;5047688;28;8989;-77
2024/04/05 06:31:06;;;;;;;;;1.00;1.00;;;;;;;;5047182;28;8894;-76
2024/04/05 06:33:34;;;;;;;;;1.00;1.00;;;;;;;;5047542;28;9009;-75
2024/04/05 06:36:22;;;;;;;;;1.00;1.00;;;;;;;;5046902;28;8839;-75
2024/04/05 06:38:49;;;;;;;;;1.25;1.00;;;;;;;;5046172;28;9005;-74
2024/04/05 06:41:17;;;;;;;;;1.50;1.00;;;;;;;;5047802;28;8859;-75
2024/04/05 06:43:45;;;;;;;;;1.00;1.00;;;;;;;;5047299;28;8905;-76
2024/04/05 06:46:11;;;;;;;;;1.00;1.00;;;;;;;;5047951;28;8855;-76
2024/04/05 06:48:40;;;;;;;;;2.00;2.00;;;;;;;;5047808;28;8835;-77
2024/04/05 06:51:11;;;;;;;;;1.00;1.00;;;;;;;;5048978;28;9639;-77
2024/04/05 06:53:38;;;;;;;;;1.00;1.00;;;;;;;;5048523;28;8952;-75
2024/04/05 06:56:06;;;;;;;;;2.75;0.00;;;;;;;;5048029;28;8869;-74
2024/04/05 06:58:34;;;;;;;;;1.50;1.50;;;;;;;;5046952;28;8851;-75
2024/04/05 07:01:01;;;;;;;;;0.75;0.75;;;;;;;;5046888;28;8791;-75
2024/04/05 07:03:29;;;;;;;;;1.00;1.00;;;;;;;;5047518;28;8847;-75
2024/04/05 07:06:00;;;;;;;;;1.00;1.00;;;;;;;;5047487;28;8870;-75
2024/04/05 07:08:28;;;;;;;;;2.75;1.25;;;;;;;;5047659;28;8928;-75
2024/04/05 07:10:54;;;;;;;;;1.00;1.00;;;;;;;;5046852;28;8902;-76
2024/04/05 07:13:21;;;;;;;;;1.00;1.00;;;;;;;;5047739;28;8936;-75
2024/04/05 07:15:48;;;;;;;;;1.75;1.75;;;;;;;;5037342;28;8964;-75
2024/04/05 07:18:15;;;;;;;;;1.00;1.00;;;;;;;;5047480;28;9688;-75
2024/04/05 07:20:42;;;;;;;;;1.00;1.00;;;;;;;;5047298;28;8850;-75
2024/04/05 07:23:10;;;;;;;;;5.00;1.25;;;;;;;;5047715;28;8831;-75
2024/04/05 07:25:36;;;;;;;;;2.50;1.00;;;;;;;;5046431;28;8847;-75
2024/04/05 07:28:04;;;;;;;;;2.25;2.25;;;;;;;;5046761;28;8855;-76
2024/04/05 07:30:35;;;;;;;;;2.00;2.00;;;;;;;;5046190;28;8783;-76
2024/04/05 07:33:02;;;;;;;;;1.00;1.00;;;;;;;;5047340;28;8874;-76
2024/04/05 07:35:28;;;;;;;;;1.00;1.00;;;;;;;;5046789;28;8863;-76
2024/04/05 07:37:56;;;;;;;;;1.50;1.50;;;;;;;;5046894;28;8989;-76
2024/04/05 07:40:26;;;;;;;;;1.50;1.50;;;;;;;;5046792;28;8909;-75
2024/04/05 07:42:54;;;;;;;;;1.00;1.00;;;;;;;;5047162;28;8851;-74
2024/04/05 07:45:24;;;;;;;;;1.75;1.75;;;;;;;;5047014;28;8855;-74
2024/04/05 07:47:50;;;;;;;;;2.00;2.00;;;;;;;;5047238;28;8858;-75
2024/04/05 07:50:18;;;;;;;;;2.50;2.50;;;;;;;;5047420;28;8953;-75
2024/04/05 07:52:44;;;;;;;;;1.00;1.00;;;;;;;;5051027;28;8859;-76
2024/04/05 07:55:13;;;;;;;;;2.00;2.00;;;;;;;;5051294;28;8851;-76
2024/04/05 07:57:41;;;;;;;;;1.75;1.00;;;;;;;;5052318;28;8866;-76
2024/04/05 08:00:14;;;;;;;;;2.00;2.00;;;;;;;;5051537;28;8997;-74
2024/04/05 08:02:40;;;;;;;;;1.75;1.75;;;;;;;;5051706;28;8867;-75
2024/04/05 08:05:08;;;;;;;;;3.25;3.25;;;;;;;;5052683;28;8860;-76
2024/04/05 08:07:34;;;;;;;;;1.00;1.00;;;;;;;;5051538;28;8991;-75
2024/04/05 08:10:01;;;;;;;;;2.00;2.00;;;;;;;;5050241;28;9725;-75
2024/04/05 08:12:27;;;;;;;;;3.50;1.75;;;;;;;;5050322;28;8855;-75
2024/04/05 08:14:59;;;;;;;;;1.00;1.00;;;;;;;;5049675;28;8851;-77
2024/04/05 08:17:25;;;;;;;;;3.00;2.00;;;;;;;;5049944;28;8961;-75
2024/04/05 08:19:52;;;;;;;;;2.00;2.00;;;;;;;;5049544;28;8863;-75
2024/04/05 08:22:19;;;;;;;;;1.50;1.00;;;;;;;;5049923;28;8847;-75
2024/04/05 08:24:46;;;;;;;;;3.00;1.50;;;;;;;;5049595;28;9680;-74
2024/04/05 08:27:12;;;;;;;;;3.50;2.00;;;;;;;;5049968;28;8862;-75
2024/04/05 08:29:40;;;;;;;;;2.00;2.00;;;;;;;;5049942;28;8966;-75
2024/04/05 08:32:08;;;;;;;;;2.50;2.00;;;;;;;;5049009;28;8818;-75
2024/04/05 08:34:35;;;;;;;;;4.75;1.75;;;;;;;;5049401;28;9292;-75
2024/04/05 08:37:04;;;;;;;;;2.75;1.25;;;;;;;;5049901;28;9629;-75
2024/04/05 08:39:31;;;;;;;;;2.50;1.25;;;;;;;;5050284;28;8888;-75
2024/04/05 08:42:05;;;;;;;;;1.25;1.25;;;;;;;;5049294;28;9673;-75
2024/04/05 08:44:33;;;;;;;;;5.50;2.50;;;;;;;;5049556;28;9661;-74
2024/04/05 08:47:00;;;;;;;;;1.25;1.25;;;;;;;;5049485;28;8851;-75
2024/04/05 08:49:30;;;;;;;;;1.00;1.00;;;;;;;;5049909;28;8855;-75
2024/04/05 08:51:57;;;;;;;;;1.75;1.75;;;;;;;;5048809;28;8920;-75
2024/04/05 08:54:28;;;;;;;;;2.00;2.00;;;;;;;;5049611;28;8847;-75
2024/04/05 08:56:55;;;;;;;;;2.25;1.75;;;;;;;;5049108;28;8893;-75
2024/04/05 08:59:28;;;;;;;;;2.00;2.00;;;;;;;;5049651;28;8878;-74
2024/04/05 09:01:56;;;;;;;;;2.00;2.00;;;;;;;;5048517;28;8803;-74
2024/04/05 09:04:27;;;;;;;;;2.75;1.75;;;;;;;;5049527;28;8859;-76
2024/04/05 09:06:54;;;;;;;;;1.50;1.50;;;;;;;;5036770;28;8859;-76
2024/04/05 09:09:28;;;;;;;;;1.75;1.75;;;;;;;;5049656;28;9642;-74
2024/04/05 09:12:02;;;;;;;;;2.75;2.75;;;;;;;;5049087;28;8891;-75
2024/04/05 09:14:29;;;;;;;;;2.00;2.00;;;;;;;;5049170;28;8966;-75
2024/04/05 09:16:56;;;;;;;;;1.00;1.00;;;;;;;;5049515;28;8871;-75
2024/04/05 09:19:23;;;;;;;;;2.75;2.00;;;;;;;;5049019;28;8938;-75
2024/04/05 09:21:51;;;;;;;;;1.00;1.00;;;;;;;;5047981;28;8993;-76
2024/04/05 09:24:19;;;;;;;;;1.75;1.75;;;;;;;;5048087;28;8855;-76
2024/04/05 09:26:45;;;;;;;;;1.50;1.50;;;;;;;;5049115;28;8862;-74
2024/04/05 09:29:13;;;;;;;;;1.00;1.00;;;;;;;;5047198;28;9652;-75
2024/04/05 09:31:40;;;;;;;;;1.00;1.00;;;;;;;;5048905;28;8914;-75
2024/04/05 09:34:09;;;;;;;;;1.75;1.75;;;;;;;;5049269;28;9602;-76
2024/04/05 09:36:36;;;;;;;;;3.00;1.50;;;;;;;;5049801;28;9706;-76
2024/04/05 09:39:06;;;;;;;;;1.00;1.00;;;;;;;;5050744;28;8937;-76
2024/04/05 09:41:33;;;;;;;;;1.75;1.75;;;;;;;;5052842;28;8912;-76
2024/04/05 09:44:04;;;;;;;;;1.50;1.50;;;;;;;;5046876;28;8835;-77
2024/04/05 09:46:30;;;;;;;;;1.75;0.50;;;;;;;;5051164;28;8862;-76
2024/04/05 09:48:58;;;;;;;;;0.75;0.75;;;;;;;;5051947;28;8989;-76
2024/04/05 09:51:31;;;;;;;;;0.75;0.75;;;;;;;;5053195;28;8871;-77
2024/04/05 09:54:01;;;;;;;;;0.75;0.75;;;;;;;;5049051;28;9606;-75
2024/04/05 09:56:30;;;;;;;;;0.40;0.40;;;;;;;;5050005;28;8954;-76
2024/04/05 09:58:59;;;;;;;;;0.60;0.60;;;;;;;;5048820;28;9681;-74
2024/04/05 10:01:25;;;;;;;;;0.00;0.00;;;;;;;;5048074;28;8803;-74
2024/04/05 10:03:52;;;;;;;;;0.60;0.60;;;;;;;;5048118;28;9718;-75
2024/04/05 10:06:18;;;;;;;;;1.00;1.00;;;;;;;;5048949;28;8867;-73
2024/04/05 10:08:48;;;;;;;;;0.40;0.40;;;;;;;;5048062;28;8913;-77
2024/04/05 10:11:15;;;;;;;;;1.00;0.60;;;;;;;;5048223;28;8874;-74
2024/04/05 10:13:44;;;;;;;;;1.00;1.00;;;;;;;;5047540;28;8843;-75
2024/04/05 10:16:11;;;;;;;;;2.00;2.00;;;;;;;;5046069;28;8904;-75
2024/04/05 10:18:39;;;;;;;;;1.00;1.00;;;;;;;;5047629;28;9519;-76
2024/04/05 10:21:08;;;;;;;;;0.40;0.40;;;;;;;;5048235;28;8879;-76
2024/04/05 10:23:36;;;;;;;;;0.80;0.80;;;;;;;;5048671;28;8839;-78
2024/04/05 10:26:03;;;;;;;;;1.00;1.00;;;;;;;;5049285;28;8857;-78
2024/04/05 10:28:33;;;;;;;;;0.40;0.40;;;;;;;;5049490;28;8843;-76
2024/04/05 10:31:02;;;;;;;;;0.40;0.40;;;;;;;;5047848;28;8778;-78
2024/04/05 10:33:30;;;;;;;;;0.60;0.60;;;;;;;;5048322;28;8971;-78
2024/04/05 10:35:59;;;;;;;;;0.00;0.00;;;;;;;;5046561;28;8847;-79
2024/04/05 10:38:27;;;;;;;;;0.00;0.00;;;;;;;;5047951;28;8855;-77
2024/04/05 10:40:59;;;;;;;;;2.20;1.00;;;;;;;;5047264;28;9641;-79
2024/04/05 10:43:27;;;;;;;;;1.00;1.00;;;;;;;;5047084;28;8944;-78
2024/04/05 10:45:57;;;;;;;;;1.00;1.00;;;;;;;;5047595;28;8882;-79
2024/04/05 10:48:26;;;;;;;;;0.60;0.60;;;;;;;;5047339;28;8956;-80
2024/04/05 10:50:53;;;;;;;;;0.00;0.00;;;;;;;;5047168;28;8881;-76
2024/04/05 10:53:22;;;;;;;;;1.00;1.00;;;;;;;;5047052;28;8879;-78
2024/04/05 10:55:51;;;;;;;;;0.80;0.80;;;;;;;;5046989;28;8863;-77
2024/04/05 10:58:21;;;;;;;;;1.60;1.60;;;;;;;;5046844;28;8983;-76
2024/04/05 11:00:47;;;;;;;;;1.00;1.00;;;;;;;;5047001;28;8795;-78
2024/04/05 11:03:16;;;;;;;;;1.80;1.00;;;;;;;;5047264;28;8886;-76
2024/04/05 11:05:44;;;;;;;;;1.00;1.00;;;;;;;;5047212;28;8862;-77
2024/04/05 11:08:15;;;;;;;;;0.80;0.80;;;;;;;;5046576;28;8851;-76
2024/04/05 11:10:43;;;;;;;;;1.20;1.20;;;;;;;;5046911;28;8867;-74
2024/04/05 11:13:18;;;;;;;;;6.40;1.60;;;;;;;;5046904;28;8847;-75
2024/04/05 11:15:45;;;;;;;;;0.60;0.60;;;;;;;;5047474;28;8877;-76
2024/04/05 11:18:14;;;;;;;;;0.00;0.00;;;;;;;;5047147;28;8859;-78
2024/04/05 11:20:41;;;;;;;;;3.00;1.40;;;;;;;;5046848;28;8855;-77
2024/04/05 11:23:17;;;;;;;;;1.00;1.00;;;;;;;;5047167;28;8863;-78
2024/04/05 11:25:52;;;;;;;;;1.60;1.60;;;;;;;;5050421;28;9610;-77
2024/04/05 11:28:22;;;;;;;;;2.00;1.00;;;;;;;;5042257;28;8867;-77
2024/04/05 11:30:49;;;;;;;;;0.80;0.80;;;;;;;;5050843;28;8810;-76
2024/04/05 11:33:16;;;;;;;;;0.60;0.60;;;;;;;;5052828;28;8981;-77
2024/04/05 11:35:43;;;;;;;;;1.00;1.00;;;;;;;;5051996;28;8855;-77
2024/04/05 11:38:12;;;;;;;;;1.00;0.00;;;;;;;;5052813;28;8851;-79
2024/04/05 11:40:38;;;;;;;;;1.00;1.00;;;;;;;;5052401;28;9662;-74
2024/04/05 11:43:08;;;;;;;;;0.80;0.80;;;;;;;;5052973;28;8859;-78
2024/04/05 11:45:35;;;;;;;;;0.00;0.00;;;;;;;;5050745;28;8907;-79
2024/04/05 11:48:02;;;;;;;;;2.00;0.00;;;;;;;;5051102;28;9689;-78
2024/04/05 11:50:33;;;;;;;;;0.20;0.20;;;;;;;;5050519;28;8835;-76
2024/04/05 11:53:00;;;;;;;;;0.00;0.00;;;;;;;;5052174;28;8922;-75
2024/04/05 11:55:28;;;;;;;;;0.80;0.80;;;;;;;;5050809;28;8848;-77
2024/04/05 11:57:55;;;;;;;;;0.60;0.60;;;;;;;;5052072;28;8893;-77
2024/04/05 12:00:22;;;;;;;;;0.20;0.20;;;;;;;;5056372;28;8948;-79
2024/04/05 12:02:50;;;;;;;;;0.00;0.00;;;;;;;;5051430;28;8859;-79
2024/04/05 12:05:16;;;;;;;;;0.00;0.00;;;;;;;;5052119;28;9633;-75
2024/04/05 12:07:44;;;;;;;;;0.00;0.00;;;;;;;;5050062;28;8851;-77
2024/04/05 12:10:14;;;;;;;;;1.00;0.00;;;;;;;;5050551;28;9635;-78
2024/04/05 12:12:42;;;;;;;;;1.00;1.00;;;;;;;;5050554;28;9001;-76
2024/04/05 12:15:09;;;;;;;;;0.20;0.20;;;;;;;;5051307;28;8940;-77
2024/04/05 12:17:37;;;;;;;;;0.00;0.00;;;;;;;;5049952;28;8823;-76
2024/04/05 12:20:04;;;;;;;;;0.00;0.00;;;;;;;;5050111;28;8881;-77
2024/04/05 12:22:32;;;;;;;;;0.00;0.00;;;;;;;;5050134;28;9625;-79
2024/04/05 12:24:58;;;;;;;;;0.00;0.00;;;;;;;;5050573;28;8863;-77
2024/04/05 12:27:25;;;;;;;;;0.80;0.80;;;;;;;;5050182;28;8966;-77
2024/04/05 12:29:54;;;;;;;;;0.80;0.80;;;;;;;;5053583;28;8862;-78
2024/04/05 12:32:21;;;;;;;;;0.60;0.60;;;;;;;;5050651;28;9547;-78
2024/04/05 12:34:47;;;;;;;;;0.00;0.00;;;;;;;;5050688;28;8982;-78
2024/04/05 12:37:21;;;;;;;;;1.00;1.00;;;;;;;;5049096;28;8843;-79
2024/04/05 12:39:48;;;;;;;;;1.20;0.00;;;;;;;;5050337;28;8828;-79
2024/04/05 12:42:16;;;;;;;;;0.00;0.00;;;;;;;;5048946;28;8855;-77
2024/04/05 12:44:44;;;;;;;;;1.60;0.00;;;;;;;;5049078;28;8848;-76
2024/04/05 12:47:12;;;;;;;;;0.80;0.80;;;;;;;;5049632;28;8946;-78
2024/04/05 12:49:38;;;;;;;;;0.00;0.00;;;;;;;;5049603;28;8846;-78
2024/04/05 12:52:06;;;;;;;;;0.00;0.00;;;;;;;;5049390;28;8847;-77
2024/04/05 12:54:32;;;;;;;;;0.00;0.00;;;;;;;;5049657;28;8873;-77
2024/04/05 12:57:01;;;;;;;;;0.00;0.00;;;;;;;;5049004;28;8838;-77
2024/04/05 12:59:29;;;;;;;;;1.40;0.00;;;;;;;;5049578;28;8843;-76
2024/04/05 13:01:57;;;;;;;;;0.00;0.00;;;;;;;;5048773;28;8788;-77
2024/04/05 13:04:25;;;;;;;;;1.00;0.00;;;;;;;;5049427;28;8843;-77
2024/04/05 13:07:00;;;;;;;;;0.00;0.00;;;;;;;;5048983;28;8956;-77
2024/04/05 13:09:26;;;;;;;;;0.00;0.00;;;;;;;;5049907;28;8892;-77
2024/04/05 13:11:53;;;;;;;;;0.00;0.00;;;;;;;;5049307;28;8884;-76
2024/04/05 13:14:22;;;;;;;;;0.60;0.00;;;;;;;;5050062;28;8854;-77
2024/04/05 13:16:59;;;;;;;;;;;;;;;;;;;;;
2024/04/05 13:19:28;;;;;;;;;0.00;0.00;;;;;;;;5050919;28;9669;-77
2024/04/05 13:21:58;;;;;;;;;0.80;0.00;;;;;;;;5052407;28;8978;-78
2024/04/05 13:24:26;;;;;;;;;0.60;0.00;;;;;;;;5051993;28;8914;-78
2024/04/05 13:26:53;;;;;;;;;0.00;0.00;;;;;;;;5052238;28;8921;-79
2024/04/05 13:29:20;;;;;;;;;0.00;0.00;;;;;;;;5052902;28;9602;-78
2024/04/05 13:31:46;;;;;;;;;1.20;1.00;;;;;;;;5049190;28;8889;-77
2024/04/05 13:34:14;;;;;;;;;1.80;1.80;;;;;;;;5047034;28;8851;-79
2024/04/05 13:36:42;;;;;;;;;1.40;0.80;;;;;;;;5049201;28;8851;-78
2024/04/05 13:39:10;;;;;;;;;2.20;1.00;;;;;;;;5048487;28;9689;-78
2024/04/05 13:41:36;;;;;;;;;3.00;1.00;;;;;;;;5048791;28;9630;-79
2024/04/05 13:44:04;;;;;;;;;1.60;1.60;;;;;;;;5048670;28;8854;-78
2024/04/05 13:46:30;;;;;;;;;1.40;1.00;;;;;;;;5048540;28;8862;-78
2024/04/05 13:48:58;;;;;;;;;3.00;1.00;;;;;;;;5048057;28;8866;-77
2024/04/05 13:51:27;;;;;;;;;1.00;1.00;;;;;;;;5048452;28;8871;-78
2024/04/05 13:53:57;;;;;;;;;2.80;2.80;;;;;;;;5048152;28;8871;-78
2024/04/05 13:56:27;;;;;;;;;4.80;2.00;;;;;;;;5047909;28;8847;-78
2024/04/05 13:58:56;;;;;;;;;0.80;0.80;;;;;;;;5048335;28;8932;-77
2024/04/05 14:01:26;;;;;;;;;0.80;0.80;;;;;;;;5047106;28;8797;-78
2024/04/05 14:03:52;;;;;;;;;1.60;1.60;;;;;;;;5048956;28;8859;-78
2024/04/05 14:06:20;;;;;;;;;1.80;1.80;;;;;;;;5050077;28;8863;-77
2024/04/05 14:08:46;;;;;;;;;1.00;1.00;;;;;;;;5048651;28;8859;-77
2024/04/05 14:11:16;;;;;;;;;1.00;1.00;;;;;;;;5047992;28;8843;-78
2024/04/05 14:13:43;;;;;;;;;3.20;2.00;;;;;;;;5048348;28;8870;-78
2024/04/05 14:16:12;;;;;;;;;1.20;1.20;;;;;;;;5049542;28;9614;-78
2024/04/05 14:18:38;;;;;;;;;1.00;1.00;;;;;;;;5054285;28;8920;-78
2024/04/05 14:21:10;;;;;;;;;2.20;1.00;;;;;;;;5049493;28;8827;-77
2024/04/05 14:23:37;;;;;;;;;2.00;2.00;;;;;;;;5047768;28;8854;-78
2024/04/05 14:26:04;;;;;;;;;1.20;1.20;;;;;;;;5047691;28;8885;-78
2024/04/05 14:28:32;;;;;;;;;1.40;1.40;;;;;;;;5048150;28;8970;-78
2024/04/05 14:31:01;;;;;;;;;0.00;0.00;;;;;;;;5047080;28;8780;-78
2024/04/05 14:33:27;;;;;;;;;0.80;0.80;;;;;;;;5047812;28;8859;-77
2024/04/05 14:35:59;;;;;;;;;0.80;0.80;;;;;;;;5047175;28;8851;-78
2024/04/05 14:38:25;;;;;;;;;1.00;1.00;;;;;;;;5047606;28;9006;-78
2024/04/05 14:40:56;;;;;;;;;1.00;1.00;;;;;;;;5047691;28;8839;-78
2024/04/05 14:43:22;;;;;;;;;1.00;1.00;;;;;;;;5048107;28;8855;-78
2024/04/05 14:45:58;;;;;;;;;2.00;2.00;;;;;;;;5048618;28;9707;-78
2024/04/05 14:48:25;;;;;;;;;2.00;2.00;;;;;;;;5051571;28;9654;-78
2024/04/05 14:50:54;;;;;;;;;0.80;0.80;;;;;;;;5048541;28;8859;-78
2024/04/05 14:53:20;;;;;;;;;0.00;0.00;;;;;;;;5047374;28;8842;-78
2024/04/05 14:55:55;;;;;;;;;2.00;2.00;;;;;;;;5047702;28;8851;-78
2024/04/05 14:58:21;;;;;;;;;1.20;1.20;;;;;;;;5047755;28;9626;-80
2024/04/05 15:00:49;;;;;;;;;1.00;1.00;;;;;;;;5046821;28;8830;-78